createdAt,value
2022-11-23T00:00:24.875Z,5.40
2022-11-23T00:02:55.844Z,5.70
2022-11-23T00:05:23.116Z,4.97
2022-11-23T00:07:50.363Z,5.36
2022-11-23T00:10:17.855Z,4.93
2022-11-23T00:12:45.127Z,5.18
2022-11-23T00:15:13.040Z,5.00
2022-11-23T00:17:40.575Z,4.94
2022-11-23T00:20:08.424Z,4.78
2022-11-23T00:22:35.721Z,4.86
2022-11-23T00:25:03.372Z,5.38
2022-11-23T00:27:30.601Z,5.12
2022-11-23T00:29:57.771Z,4.84
2022-11-23T00:32:25.691Z,5.35
2022-11-23T00:34:52.912Z,5.40
2022-11-23T00:37:20.101Z,5.16
2022-11-23T00:39:47.590Z,5.11
2022-11-23T00:42:14.794Z,5.46
2022-11-23T00:44:41.989Z,5.14
2022-11-23T00:47:09.458Z,5.32
2022-11-23T00:49:36.633Z,5.26
2022-11-23T00:52:03.901Z,5.12
2022-11-23T00:54:31.707Z,5.47
2022-11-23T00:56:58.909Z,4.99
2022-11-23T00:59:26.209Z,5.14
2022-11-23T01:01:54.386Z,5.63
2022-11-23T01:04:21.613Z,5.22
2022-11-23T01:06:48.848Z,5.52
2022-11-23T01:09:17.928Z,5.47
2022-11-23T01:11:45.224Z,4.98
2022-11-23T01:14:12.509Z,5.35
2022-11-23T01:16:40.577Z,5.15
2022-11-23T01:19:11.547Z,5.23
2022-11-23T01:21:39.375Z,5.57
2022-11-23T01:24:12.257Z,5.02
2022-11-23T01:26:41.135Z,5.23
2022-11-23T01:29:08.693Z,4.78
2022-11-23T01:31:41.810Z,5.16
2022-11-23T01:34:14.552Z,4.95
2022-11-23T01:36:41.960Z,4.95
2022-11-23T01:39:10.364Z,5.00
2022-11-23T01:41:39.268Z,5.34
2022-11-23T01:44:21.627Z,5.27
2022-11-23T01:46:53.108Z,5.20
2022-11-23T01:49:20.420Z,5.24
2022-11-23T01:51:48.613Z,5.27
2022-11-23T01:54:22.551Z,5.43
2022-11-23T01:56:51.129Z,5.21
2022-11-23T01:59:18.876Z,5.33
2022-11-23T02:01:46.170Z,5.04
2022-11-23T02:04:16.654Z,4.95
2022-11-23T02:06:45.167Z,5.35
2022-11-23T02:09:12.362Z,5.12
2022-11-23T02:11:39.909Z,5.00
2022-11-23T02:14:07.400Z,5.00
2022-11-23T02:16:34.615Z,4.68
2022-11-23T02:19:01.802Z,5.01
2022-11-23T02:21:29.396Z,4.80
2022-11-23T02:24:09.047Z,5.31
2022-11-23T02:26:37.118Z,5.19
2022-11-23T02:29:12.188Z,4.86
2022-11-23T02:31:39.688Z,4.89
2022-11-23T02:34:06.966Z,5.13
2022-11-23T02:36:39.903Z,5.37
2022-11-23T02:39:08.971Z,4.56
2022-11-23T02:41:37.546Z,5.07
2022-11-23T02:44:04.845Z,5.26
2022-11-23T02:46:32.293Z,4.82
2022-11-23T02:48:59.494Z,5.24
2022-11-23T02:51:27.645Z,4.78
2022-11-23T02:53:55.104Z,4.94
2022-11-23T02:56:22.306Z,4.99
2022-11-23T02:58:49.691Z,4.68
2022-11-23T03:01:18.318Z,4.67
2022-11-23T03:03:46.698Z,5.23
2022-11-23T03:06:14.020Z,5.10
2022-11-23T03:08:41.889Z,5.09
2022-11-23T03:11:09.471Z,5.01
2022-11-23T03:13:36.674Z,4.73
2022-11-23T03:16:04.314Z,5.17
2022-11-23T03:18:31.570Z,4.78
2022-11-23T03:21:05.369Z,4.67
2022-11-23T03:23:32.846Z,4.79
2022-11-23T03:26:00.930Z,4.68
2022-11-23T03:28:28.558Z,4.93
2022-11-23T03:30:56.578Z,5.09
2022-11-23T03:33:24.242Z,4.97
2022-11-23T03:35:52.032Z,5.24
2022-11-23T03:38:19.749Z,4.50
2022-11-23T03:40:47.060Z,4.59
2022-11-23T03:43:14.420Z,4.48
2022-11-23T03:45:42.416Z,4.64
2022-11-23T03:48:09.599Z,5.02
2022-11-23T03:50:36.823Z,4.78
2022-11-23T03:53:04.388Z,5.08
2022-11-23T03:55:31.978Z,5.22
2022-11-23T03:57:59.761Z,5.27
2022-11-23T04:00:27.946Z,4.87
2022-11-23T04:02:55.479Z,4.78
2022-11-23T04:05:27.039Z,5.12
2022-11-23T04:08:01.008Z,4.81
2022-11-23T04:10:28.324Z,5.51
2022-11-23T04:12:58.488Z,5.44
2022-11-23T04:15:25.949Z,5.67
2022-11-23T04:17:54.077Z,5.24
2022-11-23T04:20:21.247Z,5.10
2022-11-23T04:22:49.002Z,5.06
2022-11-23T04:25:16.533Z,4.78
2022-11-23T04:27:43.775Z,4.82
2022-11-23T04:30:11.536Z,4.81
2022-11-23T04:32:38.863Z,5.14
2022-11-23T04:35:06.201Z,4.53
2022-11-23T04:37:33.942Z,4.92
2022-11-23T04:40:01.833Z,4.96
2022-11-23T04:42:29.927Z,4.94
2022-11-23T04:44:58.027Z,4.75
2022-11-23T04:47:25.455Z,4.70
2022-11-23T04:49:53.091Z,4.87
2022-11-23T04:52:20.599Z,4.69
2022-11-23T04:54:47.865Z,4.75
2022-11-23T04:57:15.259Z,4.59
2022-11-23T04:59:42.907Z,4.90
2022-11-23T05:02:10.386Z,5.01
2022-11-23T05:04:38.292Z,5.06
2022-11-23T05:07:06.034Z,5.34
2022-11-23T05:09:34.657Z,5.40
2022-11-23T05:12:02.375Z,5.11
2022-11-23T05:14:31.791Z,5.05
2022-11-23T05:16:59.140Z,4.97
2022-11-23T05:19:26.509Z,4.86
2022-11-23T05:21:54.196Z,4.86
2022-11-23T05:24:22.713Z,4.33
2022-11-23T05:26:56.086Z,5.02
2022-11-23T05:29:23.937Z,4.78
2022-11-23T05:31:51.240Z,4.65
2022-11-23T05:34:18.590Z,5.08
2022-11-23T05:36:46.124Z,5.10
2022-11-23T05:39:13.761Z,4.76
2022-11-23T05:41:41.028Z,4.80
2022-11-23T05:44:09.326Z,5.08
2022-11-23T05:46:36.530Z,5.15
2022-11-23T05:49:03.746Z,5.49
2022-11-23T05:51:33.040Z,5.35
2022-11-23T05:54:01.213Z,5.83
2022-11-23T05:56:28.923Z,5.73
2022-11-23T05:58:56.838Z,5.59
2022-11-23T06:01:24.237Z,5.30
2022-11-23T06:03:53.048Z,5.53
2022-11-23T06:06:20.477Z,5.74
2022-11-23T06:08:49.191Z,5.54
2022-11-23T06:11:17.147Z,5.40
2022-11-23T06:13:46.559Z,5.53
2022-11-23T06:16:13.760Z,5.60
2022-11-23T06:18:42.477Z,5.76
2022-11-23T06:21:09.885Z,5.72
2022-11-23T06:23:37.986Z,5.49
2022-11-23T06:26:06.434Z,5.70
2022-11-23T06:28:35.979Z,5.34
2022-11-23T06:31:04.098Z,5.75
2022-11-23T06:33:31.719Z,5.76
2022-11-23T06:36:00.355Z,5.47
2022-11-23T06:38:29.013Z,5.01
2022-11-23T06:41:00.318Z,4.67
2022-11-23T06:43:28.309Z,4.89
2022-11-23T06:45:55.621Z,5.02
2022-11-23T06:48:23.581Z,4.98
2022-11-23T06:50:51.159Z,5.09
2022-11-23T06:53:18.872Z,5.22
2022-11-23T06:55:46.407Z,5.14
2022-11-23T06:58:13.917Z,5.18
2022-11-23T07:00:41.202Z,5.69
2022-11-23T07:03:24.754Z,5.62
2022-11-23T07:05:52.852Z,5.43
2022-11-23T07:08:20.926Z,5.82
2022-11-23T07:10:48.137Z,5.84
2022-11-23T07:13:15.820Z,5.59
2022-11-23T07:15:43.453Z,5.68
2022-11-23T07:18:11.171Z,5.58
2022-11-23T07:20:40.087Z,5.42
2022-11-23T07:23:08.354Z,5.94
2022-11-23T07:25:36.061Z,5.46
2022-11-23T07:28:04.044Z,5.50
2022-11-23T07:30:32.494Z,5.91
2022-11-23T07:33:03.534Z,5.87
2022-11-23T07:35:32.807Z,5.83
2022-11-23T07:38:00.446Z,5.54
2022-11-23T07:40:27.779Z,5.98
2022-11-23T07:43:01.435Z,5.96
2022-11-23T07:45:29.276Z,5.44
2022-11-23T07:48:00.540Z,5.91
2022-11-23T07:50:28.263Z,5.97
2022-11-23T07:52:55.799Z,5.60
2022-11-23T07:55:23.471Z,5.77
2022-11-23T07:57:54.359Z,5.38
2022-11-23T08:00:22.272Z,5.13
2022-11-23T08:03:19.236Z,5.53
2022-11-23T08:05:37.060Z,5.97
2022-11-23T08:08:04.656Z,6.27
2022-11-23T08:10:31.883Z,6.09
2022-11-23T08:13:03.454Z,6.67
2022-11-23T08:15:30.979Z,6.59
2022-11-23T08:17:58.661Z,6.39
2022-11-23T08:20:26.138Z,6.99
2022-11-23T08:22:55.917Z,6.65
2022-11-23T08:25:23.703Z,7.22
2022-11-23T08:27:57.736Z,7.20
2022-11-23T08:30:25.367Z,7.30
2022-11-23T08:32:52.759Z,7.24
2022-11-23T08:35:20.338Z,7.30
2022-11-23T08:37:47.811Z,6.94
2022-11-23T08:40:17.408Z,6.72
2022-11-23T08:42:47.171Z,6.60
2022-11-23T08:45:14.662Z,7.01
2022-11-23T08:47:41.814Z,7.13
2022-11-23T08:50:09.297Z,7.00
2022-11-23T08:52:36.800Z,7.14
2022-11-23T08:55:04.288Z,7.35
2022-11-23T08:57:31.571Z,6.97
2022-11-23T08:59:59.016Z,6.66
2022-11-23T09:02:26.231Z,7.03
2022-11-23T09:04:53.461Z,7.08
2022-11-23T09:07:21.063Z,6.92
2022-11-23T09:09:48.304Z,7.56
2022-11-23T09:12:15.508Z,7.82
2022-11-23T09:14:43.332Z,8.01
2022-11-23T09:17:10.538Z,8.35
2022-11-23T09:19:37.747Z,7.60
2022-11-23T09:22:05.238Z,7.42
2022-11-23T09:24:32.812Z,7.59
2022-11-23T09:27:00.270Z,7.88
2022-11-23T09:29:28.443Z,7.33
2022-11-23T09:31:55.762Z,7.61
2022-11-23T09:34:23.162Z,7.40
2022-11-23T09:36:50.660Z,7.64
2022-11-23T09:39:17.879Z,7.77
2022-11-23T09:42:03.758Z,8.02
2022-11-23T09:44:33.868Z,8.44
2022-11-23T09:47:01.391Z,8.33
2022-11-23T09:49:31.539Z,8.54
2022-11-23T09:51:59.027Z,7.66
2022-11-23T09:54:33.471Z,8.72
2022-11-23T09:57:02.107Z,8.80
2022-11-23T09:59:32.559Z,8.18
2022-11-23T10:01:59.851Z,8.01
2022-11-23T10:04:29.351Z,8.33
2022-11-23T10:07:18.792Z,8.18
2022-11-23T10:10:05.253Z,8.15
2022-11-23T10:12:51.501Z,8.39
2022-11-23T10:15:19.056Z,8.61
2022-11-23T10:17:56.708Z,8.78
2022-11-23T10:20:42.962Z,8.72
2022-11-23T10:23:14.271Z,8.55
2022-11-23T10:25:47.005Z,8.07
2022-11-23T10:28:15.129Z,7.75
2022-11-23T10:30:43.280Z,8.12
2022-11-23T10:33:19.536Z,8.61
2022-11-23T10:35:47.046Z,8.62
2022-11-23T10:38:19.364Z,8.67
2022-11-23T10:40:55.297Z,8.67
2022-11-23T10:43:23.377Z,8.43
2022-11-23T10:45:53.649Z,8.62
2022-11-23T10:48:35.886Z,9.02
2022-11-23T10:51:24.145Z,9.01
2022-11-23T10:53:57.648Z,7.58
2022-11-23T10:56:28.595Z,7.70
2022-11-23T10:58:55.940Z,7.67
2022-11-23T11:01:24.534Z,7.74
2022-11-23T11:03:55.605Z,8.10
2022-11-23T11:06:27.057Z,8.46
2022-11-23T11:08:55.414Z,8.22
2022-11-23T11:11:29.429Z,8.49
2022-11-23T11:14:16.453Z,8.56
2022-11-23T11:16:50.408Z,7.92
2022-11-23T11:19:36.202Z,8.44
2022-11-23T11:22:22.235Z,8.65
2022-11-23T11:24:49.681Z,8.64
2022-11-23T11:27:17.745Z,8.28
2022-11-23T11:29:44.962Z,8.45
2022-11-23T11:32:27.884Z,8.17
2022-11-23T11:35:01.139Z,8.49
2022-11-23T11:37:39.352Z,8.75
2022-11-23T11:40:25.438Z,8.93
2022-11-23T11:43:06.229Z,8.80
2022-11-23T11:45:36.822Z,9.21
2022-11-23T11:48:23.513Z,9.08
2022-11-23T11:50:57.417Z,9.41
2022-11-23T11:53:28.866Z,8.52
2022-11-23T11:55:57.680Z,9.07
2022-11-23T11:58:26.371Z,9.74
2022-11-23T12:01:07.646Z,9.98
2022-11-23T12:03:35.159Z,9.80
2022-11-23T12:06:13.558Z,9.40
2022-11-23T12:08:44.858Z,9.33
2022-11-23T12:11:12.105Z,9.17
2022-11-23T12:13:40.647Z,9.10
2022-11-23T12:16:08.151Z,8.85
2022-11-23T12:19:07.958Z,9.46
2022-11-23T12:21:41.448Z,9.84
2022-11-23T12:24:12.936Z,10.13
2022-11-23T12:26:55.795Z,9.84
2022-11-23T12:29:41.959Z,9.98
2022-11-23T12:32:28.280Z,10.03
2022-11-23T12:35:05.273Z,10.40
2022-11-23T12:37:41.802Z,10.62
2022-11-23T12:40:14.800Z,10.18
2022-11-23T12:42:43.047Z,10.40
2022-11-23T12:45:13.360Z,10.20
2022-11-23T12:47:49.803Z,10.43
2022-11-23T12:50:17.741Z,10.80
2022-11-23T12:53:03.576Z,10.31
2022-11-23T12:55:31.059Z,9.54
2022-11-23T12:58:16.937Z,10.28
2022-11-23T13:00:49.186Z,10.58
2022-11-23T13:03:39.722Z,9.23
2022-11-23T13:06:07.164Z,10.16
2022-11-23T13:08:53.123Z,10.36
2022-11-23T13:11:34.441Z,9.93
2022-11-23T13:14:10.693Z,9.90
2022-11-23T13:16:41.319Z,10.39
2022-11-23T13:19:17.856Z,10.60
2022-11-23T13:21:46.057Z,10.16
2022-11-23T13:24:25.547Z,11.04
2022-11-23T13:27:31.518Z,11.12
2022-11-23T13:30:01.251Z,10.63
2022-11-23T13:32:39.349Z,11.30
2022-11-23T13:35:18.808Z,11.58
2022-11-23T13:38:00.249Z,10.18
2022-11-23T13:40:27.452Z,10.87
2022-11-23T13:43:02.094Z,11.07
2022-11-23T13:45:31.100Z,11.19
2022-11-23T13:48:04.764Z,10.90
2022-11-23T13:50:32.142Z,11.13
2022-11-23T13:52:59.718Z,10.47
2022-11-23T13:55:39.224Z,10.86
2022-11-23T13:58:22.730Z,10.90
2022-11-23T14:00:57.133Z,10.77
2022-11-23T14:03:49.306Z,10.97
2022-11-23T14:06:29.032Z,11.16
2022-11-23T14:08:59.848Z,11.34
2022-11-23T14:11:27.086Z,11.40
2022-11-23T14:13:55.947Z,11.59
2022-11-23T14:16:33.361Z,12.21
2022-11-23T14:19:19.390Z,12.41
2022-11-23T14:21:52.710Z,12.49
2022-11-23T14:24:38.824Z,12.70
2022-11-23T14:27:45.762Z,12.54
2022-11-23T14:30:25.041Z,12.59
2022-11-23T14:33:03.612Z,12.67
2022-11-23T14:35:50.075Z,12.77
2022-11-23T14:38:33.820Z,12.88
2022-11-23T14:41:13.150Z,12.70
2022-11-23T14:43:41.438Z,12.87
2022-11-23T14:46:14.170Z,12.96
2022-11-23T14:48:41.820Z,13.05
2022-11-23T14:51:12.982Z,13.08
2022-11-23T14:53:58.926Z,13.06
2022-11-23T14:56:33.186Z,12.65
2022-11-23T14:59:17.659Z,12.96
2022-11-23T15:01:51.870Z,12.84
2022-11-23T15:04:25.484Z,12.95
2022-11-23T15:06:54.343Z,13.00
2022-11-23T15:09:27.581Z,13.09
2022-11-23T15:12:05.669Z,12.90
2022-11-23T15:14:33.404Z,13.08
2022-11-23T15:17:14.963Z,12.88
2022-11-23T15:19:42.865Z,13.19
2022-11-23T15:22:16.735Z,13.32
2022-11-23T15:24:43.970Z,13.19
2022-11-23T15:27:15.292Z,13.14
2022-11-23T15:29:53.024Z,13.42
2022-11-23T15:32:30.723Z,13.41
2022-11-23T15:35:00.220Z,13.27
2022-11-23T15:37:27.748Z,13.27
2022-11-23T15:39:55.191Z,13.21
2022-11-23T15:42:22.892Z,13.28
2022-11-23T15:44:52.011Z,13.33
2022-11-23T15:47:27.550Z,13.31
2022-11-23T15:49:58.766Z,13.40
2022-11-23T15:52:27.123Z,13.50
2022-11-23T15:54:54.640Z,13.59
2022-11-23T15:57:22.750Z,13.57
2022-11-23T15:59:59.467Z,13.48
2022-11-23T16:02:28.906Z,13.40
2022-11-23T16:05:05.713Z,13.14
2022-11-23T16:07:33.068Z,13.16
2022-11-23T16:10:19.276Z,13.03
2022-11-23T16:12:50.650Z,13.23
2022-11-23T16:15:41.540Z,13.24
2022-11-23T16:18:17.706Z,13.38
2022-11-23T16:20:45.556Z,13.33
2022-11-23T16:23:14.691Z,13.21
2022-11-23T16:25:41.970Z,13.34
2022-11-23T16:28:22.324Z,13.38
2022-11-23T16:30:49.622Z,13.30
2022-11-23T16:33:17.554Z,12.73
2022-11-23T16:35:45.376Z,13.08
2022-11-23T16:38:12.816Z,13.17
2022-11-23T16:40:40.658Z,13.03
2022-11-23T16:43:09.053Z,13.24
2022-11-23T16:45:37.172Z,12.77
2022-11-23T16:48:06.519Z,12.65
2022-11-23T16:50:34.272Z,12.63
2022-11-23T16:53:02.331Z,12.96
2022-11-23T16:55:29.909Z,13.18
2022-11-23T16:57:57.311Z,12.93
2022-11-23T17:00:24.628Z,12.66
2022-11-23T17:02:52.421Z,12.23
2022-11-23T17:05:20.215Z,12.66
2022-11-23T17:07:47.476Z,13.19
2022-11-23T17:10:15.098Z,13.01
2022-11-23T17:12:52.484Z,12.81
2022-11-23T17:15:20.467Z,13.06
2022-11-23T17:17:47.707Z,12.61
2022-11-23T17:20:15.451Z,12.84
2022-11-23T17:22:43.447Z,13.02
2022-11-23T17:25:15.056Z,13.22
2022-11-23T17:27:44.971Z,13.30
2022-11-23T17:30:17.420Z,13.02
2022-11-23T17:32:45.023Z,13.03
2022-11-23T17:35:12.402Z,13.11
2022-11-23T17:37:39.680Z,13.16
2022-11-23T17:40:16.887Z,13.25
2022-11-23T17:42:44.304Z,13.39
2022-11-23T17:45:12.398Z,13.25
2022-11-23T17:47:39.832Z,13.25
2022-11-23T17:50:07.568Z,13.01
2022-11-23T17:52:35.066Z,13.00
2022-11-23T17:55:02.295Z,13.26
2022-11-23T17:57:29.567Z,12.63
2022-11-23T18:00:01.874Z,12.66
2022-11-23T18:02:39.059Z,12.74
2022-11-23T18:05:06.882Z,13.02
2022-11-23T18:07:34.240Z,13.20
2022-11-23T18:10:01.844Z,12.98
2022-11-23T18:12:29.374Z,13.27
2022-11-23T18:14:56.866Z,13.13
2022-11-23T18:17:24.308Z,13.13
2022-11-23T18:19:51.921Z,13.48
2022-11-23T18:22:19.235Z,13.27
2022-11-23T18:24:46.458Z,13.58
2022-11-23T18:27:13.960Z,13.48
2022-11-23T18:29:41.295Z,13.54
2022-11-23T18:32:08.974Z,13.60
2022-11-23T18:34:36.733Z,13.54
2022-11-23T18:37:05.445Z,13.60
2022-11-23T18:39:33.056Z,13.63
2022-11-23T18:42:05.510Z,13.49
2022-11-23T18:44:33.319Z,13.57
2022-11-23T18:47:01.000Z,13.45
2022-11-23T18:49:28.404Z,13.72
2022-11-23T18:51:55.831Z,13.81
2022-11-23T18:54:23.482Z,13.79
2022-11-23T18:56:50.680Z,13.72
2022-11-23T18:59:56.294Z,13.57
2022-11-23T19:02:08.959Z,13.39
2022-11-23T19:04:36.478Z,13.57
2022-11-23T19:07:03.709Z,13.66
2022-11-23T19:09:31.463Z,13.65
2022-11-23T19:11:59.141Z,13.66
2022-11-23T19:14:26.407Z,13.71
2022-11-23T19:16:54.084Z,13.74
2022-11-23T19:19:21.540Z,13.57
2022-11-23T19:21:48.884Z,13.66
2022-11-23T19:24:16.354Z,13.72
2022-11-23T19:26:43.695Z,13.60
2022-11-23T19:29:11.100Z,13.51
2022-11-23T19:31:38.828Z,13.59
2022-11-23T19:34:06.377Z,13.79
2022-11-23T19:36:36.429Z,13.80
2022-11-23T19:39:05.093Z,13.89
2022-11-23T19:41:32.345Z,13.83
2022-11-23T19:44:00.069Z,13.65
2022-11-23T19:46:28.044Z,13.69
2022-11-23T19:48:57.351Z,13.62
2022-11-23T19:51:25.052Z,13.54
2022-11-23T19:53:54.717Z,13.26
2022-11-23T19:56:24.196Z,13.52
2022-11-23T19:58:52.254Z,13.39
2022-11-23T20:01:20.748Z,13.14
2022-11-23T20:03:49.104Z,13.31
2022-11-23T20:06:17.451Z,12.98
2022-11-23T20:08:44.933Z,13.18
2022-11-23T20:11:13.680Z,13.23
2022-11-23T20:13:41.117Z,12.89
2022-11-23T20:16:12.888Z,12.74
2022-11-23T20:18:43.924Z,12.91
2022-11-23T20:21:17.796Z,12.97
2022-11-23T20:23:45.771Z,12.89
2022-11-23T20:26:14.682Z,12.54
2022-11-23T20:28:42.398Z,12.82
2022-11-23T20:31:20.143Z,12.61
2022-11-23T20:33:50.630Z,12.28
2022-11-23T20:36:19.528Z,12.56
2022-11-23T20:38:47.181Z,12.62
2022-11-23T20:41:15.391Z,12.57
2022-11-23T20:43:43.149Z,12.63
2022-11-23T20:46:10.665Z,12.62
2022-11-23T20:48:39.302Z,12.49
2022-11-23T20:51:10.379Z,12.38
2022-11-23T20:53:38.306Z,12.55
2022-11-23T20:56:06.594Z,12.56
2022-11-23T20:58:35.140Z,12.42
2022-11-23T21:01:13.421Z,12.31
2022-11-23T21:03:41.415Z,12.17
2022-11-23T21:06:10.730Z,12.10
2022-11-23T21:08:38.188Z,12.03
2022-11-23T21:11:32.112Z,12.16
2022-11-23T21:14:15.608Z,11.67
2022-11-23T21:16:55.751Z,12.11
2022-11-23T21:19:24.090Z,12.04
2022-11-23T21:21:51.843Z,12.14
2022-11-23T21:24:19.064Z,12.21
2022-11-23T21:26:46.439Z,12.19
2022-11-23T21:29:14.156Z,12.33
2022-11-23T21:31:42.149Z,12.25
2022-11-23T21:34:12.292Z,12.39
2022-11-23T21:36:39.836Z,11.97
2022-11-23T21:39:07.909Z,12.13
2022-11-23T21:41:35.644Z,12.28
2022-11-23T21:44:03.652Z,12.23
2022-11-23T21:46:30.937Z,12.36
2022-11-23T21:48:58.662Z,12.42
2022-11-23T21:51:27.017Z,12.17
2022-11-23T21:53:54.704Z,12.01
2022-11-23T21:56:22.077Z,12.20
2022-11-23T21:58:49.740Z,12.30
2022-11-23T22:01:17.005Z,12.33
2022-11-23T22:03:45.879Z,12.14
2022-11-23T22:06:20.001Z,12.11
2022-11-23T22:08:52.165Z,12.12
2022-11-23T22:11:21.799Z,12.20
2022-11-23T22:13:52.866Z,12.00
2022-11-23T22:16:21.006Z,12.19
2022-11-23T22:18:54.019Z,11.87
2022-11-23T22:21:23.475Z,12.05
2022-11-23T22:23:51.005Z,12.13
2022-11-23T22:26:19.006Z,11.96
2022-11-23T22:28:47.169Z,12.01
2022-11-23T22:31:15.591Z,11.86
2022-11-23T22:33:43.171Z,11.82
2022-11-23T22:36:14.662Z,12.01
2022-11-23T22:38:42.212Z,12.08
2022-11-23T22:41:10.286Z,12.06
2022-11-23T22:43:37.790Z,11.92
2022-11-23T22:46:09.936Z,11.73
2022-11-23T22:48:37.724Z,11.63
2022-11-23T22:51:05.278Z,11.60
2022-11-23T22:53:33.001Z,11.45
2022-11-23T22:56:04.689Z,11.80
2022-11-23T22:58:32.412Z,11.78
2022-11-23T23:01:06.782Z,11.95
2022-11-23T23:03:34.481Z,11.61
2022-11-23T23:06:02.230Z,11.80
2022-11-23T23:08:29.699Z,11.58
2022-11-23T23:10:57.300Z,11.83
2022-11-23T23:13:24.590Z,11.66
2022-11-23T23:15:59.585Z,11.92
2022-11-23T23:18:27.237Z,11.77
2022-11-23T23:21:04.168Z,11.89
2022-11-23T23:23:33.284Z,11.57
2022-11-23T23:26:00.517Z,11.49
2022-11-23T23:28:27.785Z,11.60
2022-11-23T23:31:01.964Z,11.54
2022-11-23T23:33:29.773Z,11.48
2022-11-23T23:35:57.355Z,11.38
2022-11-23T23:38:27.634Z,11.51
2022-11-23T23:40:55.689Z,11.72
2022-11-23T23:43:23.361Z,11.58
2022-11-23T23:45:50.873Z,11.55
2022-11-23T23:48:18.339Z,11.31
2022-11-23T23:50:45.828Z,11.48
2022-11-23T23:53:13.053Z,11.46
2022-11-23T23:55:40.313Z,11.41
2022-11-23T23:58:10.514Z,11.49
